createdAt,value
2022-11-16T00:01:58.996Z,68.50
2022-11-16T00:04:26.783Z,67.84
2022-11-16T00:06:53.469Z,68.66
2022-11-16T00:09:19.953Z,67.39
2022-11-16T00:11:48.334Z,69.24
2022-11-16T00:14:14.774Z,69.06
2022-11-16T00:16:41.182Z,68.42
2022-11-16T00:19:08.046Z,68.30
2022-11-16T00:21:35.829Z,67.95
2022-11-16T00:24:02.720Z,67.88
2022-11-16T00:26:29.481Z,67.74
2022-11-16T00:28:56.285Z,67.67
2022-11-16T00:31:23.223Z,67.09
2022-11-16T00:33:50.424Z,68.12
2022-11-16T00:36:17.289Z,67.69
2022-11-16T00:38:45.059Z,68.34
2022-11-16T00:41:11.477Z,67.55
2022-11-16T00:43:37.908Z,68.01
2022-11-16T00:46:04.597Z,67.40
2022-11-16T00:48:31.716Z,68.76
2022-11-16T00:50:58.457Z,68.02
2022-11-16T00:53:24.858Z,68.37
2022-11-16T00:55:52.634Z,68.43
2022-11-16T00:58:19.053Z,68.85
2022-11-16T01:00:45.884Z,69.03
2022-11-16T01:03:12.344Z,68.21
2022-11-16T01:05:38.892Z,68.57
2022-11-16T01:08:06.039Z,69.18
2022-11-16T01:10:32.500Z,68.52
2022-11-16T01:13:00.322Z,68.95
2022-11-16T01:15:27.855Z,68.56
2022-11-16T01:17:55.643Z,67.69
2022-11-16T01:20:24.506Z,66.82
2022-11-16T01:22:51.504Z,67.68
2022-11-16T01:25:18.345Z,69.02
2022-11-16T01:27:44.850Z,68.49
2022-11-16T01:30:14.562Z,69.33
2022-11-16T01:32:41.054Z,68.82
2022-11-16T01:35:08.553Z,69.00
2022-11-16T01:37:35.007Z,67.67
2022-11-16T01:40:01.435Z,67.34
2022-11-16T01:42:29.911Z,67.29
2022-11-16T01:44:59.879Z,68.16
2022-11-16T01:47:28.467Z,67.63
2022-11-16T01:49:58.392Z,67.94
2022-11-16T01:52:28.654Z,68.35
2022-11-16T01:54:55.360Z,67.37
2022-11-16T01:57:25.733Z,65.70
2022-11-16T01:59:55.495Z,67.07
2022-11-16T02:02:22.006Z,68.08
2022-11-16T02:04:52.590Z,68.03
2022-11-16T02:07:30.532Z,68.49
2022-11-16T02:10:10.433Z,68.02
2022-11-16T02:13:06.024Z,68.20
2022-11-16T02:15:40.313Z,68.82
2022-11-16T02:18:22.373Z,68.59
2022-11-16T02:21:14.266Z,68.22
2022-11-16T02:24:07.263Z,69.11
2022-11-16T02:26:53.186Z,68.51
2022-11-16T02:29:24.333Z,67.99
2022-11-16T02:31:56.817Z,69.10
2022-11-16T02:34:28.174Z,69.05
2022-11-16T02:36:56.373Z,69.09
2022-11-16T02:39:27.154Z,68.98
2022-11-16T02:41:57.310Z,70.30
2022-11-16T02:44:30.069Z,70.95
2022-11-16T02:46:59.977Z,70.28
2022-11-16T02:49:29.443Z,70.24
2022-11-16T02:51:57.484Z,71.56
2022-11-16T02:54:23.904Z,70.39
2022-11-16T02:56:55.297Z,70.49
2022-11-16T02:59:24.014Z,70.71
2022-11-16T03:02:01.674Z,71.19
2022-11-16T03:04:32.460Z,71.00
2022-11-16T03:07:02.708Z,71.07
2022-11-16T03:09:32.877Z,71.66
2022-11-16T03:12:02.734Z,71.28
2022-11-16T03:14:34.215Z,70.41
2022-11-16T03:17:03.754Z,70.91
2022-11-16T03:19:37.142Z,72.85
2022-11-16T03:22:10.294Z,70.50
2022-11-16T03:24:37.250Z,71.66
2022-11-16T03:27:09.937Z,70.47
2022-11-16T03:29:41.659Z,72.13
2022-11-16T03:32:14.146Z,69.74
2022-11-16T03:34:44.935Z,70.93
2022-11-16T03:37:12.596Z,71.90
2022-11-16T03:39:39.898Z,72.11
2022-11-16T03:42:10.937Z,73.29
2022-11-16T03:44:38.691Z,73.45
2022-11-16T03:47:05.217Z,74.21
2022-11-16T03:49:33.254Z,75.23
2022-11-16T03:51:59.745Z,76.10
2022-11-16T03:54:26.251Z,76.19
2022-11-16T03:56:52.658Z,75.70
2022-11-16T03:59:19.053Z,75.73
2022-11-16T04:01:45.429Z,76.84
2022-11-16T04:04:12.002Z,76.25
2022-11-16T04:06:39.793Z,77.25
2022-11-16T04:09:06.191Z,78.06
2022-11-16T04:11:32.795Z,77.97
2022-11-16T04:13:59.638Z,78.12
2022-11-16T04:16:26.042Z,76.02
2022-11-16T04:18:52.497Z,76.45
2022-11-16T04:21:22.110Z,77.08
2022-11-16T04:23:50.007Z,78.32
2022-11-16T04:26:16.657Z,78.48
2022-11-16T04:28:43.203Z,79.02
2022-11-16T04:31:09.737Z,79.15
2022-11-16T04:33:36.450Z,79.18
2022-11-16T04:36:03.001Z,79.73
2022-11-16T04:38:29.438Z,80.66
2022-11-16T04:40:57.154Z,81.15
2022-11-16T04:43:23.555Z,80.88
2022-11-16T04:45:49.951Z,81.18
2022-11-16T04:48:18.342Z,82.54
2022-11-16T04:50:46.038Z,81.76
2022-11-16T04:53:13.210Z,81.57
2022-11-16T04:55:39.776Z,82.18
2022-11-16T04:58:07.511Z,82.48
2022-11-16T05:00:34.039Z,83.01
2022-11-16T05:03:01.807Z,82.05
2022-11-16T05:05:28.665Z,83.29
2022-11-16T05:07:55.500Z,82.77
2022-11-16T05:10:22.123Z,82.57
2022-11-16T05:12:48.699Z,82.03
2022-11-16T05:15:16.860Z,83.22
2022-11-16T05:17:43.451Z,83.93
2022-11-16T05:20:10.796Z,83.15
2022-11-16T05:22:37.491Z,84.16
2022-11-16T05:25:04.856Z,83.55
2022-11-16T05:27:31.512Z,84.66
2022-11-16T05:29:58.771Z,85.87
2022-11-16T05:32:27.796Z,85.16
2022-11-16T05:34:54.414Z,85.12
2022-11-16T05:37:21.113Z,85.56
2022-11-16T05:39:47.784Z,84.68
2022-11-16T05:42:14.200Z,85.96
2022-11-16T05:44:40.666Z,84.76
2022-11-16T05:47:07.097Z,84.61
2022-11-16T05:49:34.843Z,84.71
2022-11-16T05:52:01.331Z,84.05
2022-11-16T05:54:27.748Z,84.00
2022-11-16T05:56:54.692Z,84.44
2022-11-16T05:59:22.677Z,84.79
2022-11-16T06:01:50.118Z,84.54
2022-11-16T06:06:59.209Z,84.35
2022-11-16T06:09:25.688Z,85.29
2022-11-16T06:11:52.092Z,85.10
2022-11-16T06:14:18.690Z,86.34
2022-11-16T06:16:45.140Z,86.46
2022-11-16T06:19:11.739Z,87.01
2022-11-16T06:21:38.329Z,86.80
2022-11-16T06:24:06.585Z,86.57
2022-11-16T06:26:32.973Z,86.94
2022-11-16T06:28:59.654Z,87.57
2022-11-16T06:31:26.137Z,86.97
2022-11-16T06:33:52.526Z,87.83
2022-11-16T06:36:18.985Z,87.68
2022-11-16T06:38:45.369Z,88.22
2022-11-16T06:41:13.126Z,88.81
2022-11-16T06:43:39.557Z,87.97
2022-11-16T06:46:05.966Z,87.97
2022-11-16T06:48:32.621Z,89.05
2022-11-16T06:50:59.230Z,88.48
2022-11-16T06:53:29.166Z,88.45
2022-11-16T06:56:00.994Z,89.79
2022-11-16T06:58:30.042Z,90.10
2022-11-16T07:00:56.523Z,89.48
2022-11-16T07:03:23.097Z,89.59
2022-11-16T07:05:49.616Z,89.27
2022-11-16T07:08:16.022Z,87.76
2022-11-16T07:10:42.434Z,88.38
2022-11-16T07:13:08.823Z,88.58
2022-11-16T07:15:36.562Z,88.81
2022-11-16T07:18:05.132Z,89.64
2022-11-16T07:20:31.753Z,89.40
2022-11-16T07:22:59.843Z,89.88
2022-11-16T07:25:26.458Z,89.61
2022-11-16T07:27:52.888Z,91.98
2022-11-16T07:30:20.171Z,90.61
2022-11-16T07:32:47.908Z,91.08
2022-11-16T07:35:14.376Z,90.92
2022-11-16T07:37:40.782Z,91.44
2022-11-16T07:40:08.686Z,91.09
2022-11-16T07:42:35.377Z,90.96
2022-11-16T07:45:01.841Z,90.69
2022-11-16T07:47:28.273Z,90.68
2022-11-16T07:49:56.025Z,91.85
2022-11-16T07:52:22.406Z,92.16
2022-11-16T07:54:48.802Z,91.71
2022-11-16T07:57:15.239Z,91.33
2022-11-16T07:59:41.633Z,90.56
2022-11-16T08:02:09.354Z,91.25
2022-11-16T08:04:35.789Z,90.63
2022-11-16T08:07:03.581Z,89.95
2022-11-16T08:09:30.090Z,90.55
2022-11-16T08:11:56.487Z,88.95
2022-11-16T08:14:22.901Z,90.42
2022-11-16T08:16:49.314Z,88.96
2022-11-16T08:19:15.704Z,87.86
2022-11-16T08:21:42.115Z,87.81
2022-11-16T08:24:10.418Z,87.44
2022-11-16T08:26:36.865Z,87.37
2022-11-16T08:29:03.376Z,85.21
2022-11-16T08:31:30.028Z,85.67
2022-11-16T08:33:56.578Z,87.08
2022-11-16T08:36:23.600Z,84.87
2022-11-16T08:38:51.088Z,85.77
2022-11-16T08:41:19.832Z,86.74
2022-11-16T08:43:46.758Z,85.86
2022-11-16T08:46:13.529Z,86.00
2022-11-16T08:48:39.956Z,86.33
2022-11-16T08:51:17.434Z,86.09
2022-11-16T08:53:45.555Z,83.58
2022-11-16T08:56:12.247Z,84.23
2022-11-16T08:58:41.531Z,86.29
2022-11-16T09:01:09.423Z,85.53
2022-11-16T09:03:36.494Z,85.97
2022-11-16T09:06:02.902Z,87.46
2022-11-16T09:08:29.364Z,86.42
2022-11-16T09:10:55.800Z,84.47
2022-11-16T09:13:22.196Z,84.75
2022-11-16T09:15:56.025Z,85.47
2022-11-16T09:18:22.319Z,86.21
2022-11-16T09:20:48.723Z,84.88
2022-11-16T09:23:15.227Z,86.01
2022-11-16T09:25:41.972Z,85.77
2022-11-16T09:28:08.381Z,86.62
2022-11-16T09:30:34.969Z,87.59
2022-11-16T09:33:02.781Z,87.23
2022-11-16T09:35:29.187Z,87.12
2022-11-16T09:37:55.648Z,87.58
2022-11-16T09:40:22.305Z,86.44
2022-11-16T09:42:59.322Z,86.69
2022-11-16T09:45:33.091Z,84.92
2022-11-16T09:48:01.110Z,84.56
2022-11-16T09:50:41.722Z,85.51
2022-11-16T09:53:22.534Z,86.64
2022-11-16T09:55:51.883Z,86.42
2022-11-16T09:58:23.173Z,86.14
2022-11-16T10:00:56.007Z,85.54
2022-11-16T10:03:25.139Z,85.22
2022-11-16T10:05:59.727Z,87.25
2022-11-16T10:08:36.001Z,86.84
2022-11-16T10:11:22.076Z,86.25
2022-11-16T10:14:03.988Z,86.07
2022-11-16T10:16:38.110Z,84.92
2022-11-16T10:19:14.751Z,86.17
2022-11-16T10:21:51.220Z,85.62
2022-11-16T10:24:50.240Z,85.44
2022-11-16T10:27:38.432Z,84.62
2022-11-16T10:30:10.245Z,84.27
2022-11-16T10:32:43.922Z,85.17
2022-11-16T10:35:16.975Z,84.50
2022-11-16T10:37:48.116Z,85.54
2022-11-16T10:40:19.760Z,87.42
2022-11-16T10:42:53.847Z,86.20
2022-11-16T10:45:25.338Z,85.87
2022-11-16T10:47:58.017Z,87.27
2022-11-16T10:50:33.000Z,87.26
2022-11-16T10:53:00.951Z,86.46
2022-11-16T10:55:27.775Z,85.99
2022-11-16T10:57:56.646Z,84.97
2022-11-16T11:00:34.830Z,84.04
2022-11-16T11:03:01.409Z,86.37
2022-11-16T11:05:27.911Z,86.69
2022-11-16T11:08:02.536Z,85.29
2022-11-16T11:10:31.299Z,87.64
2022-11-16T11:13:03.118Z,86.89
2022-11-16T11:15:29.554Z,86.50
2022-11-16T11:18:25.392Z,87.24
2022-11-16T11:21:04.115Z,85.42
2022-11-16T11:23:40.220Z,85.72
2022-11-16T11:26:10.440Z,86.66
2022-11-16T11:28:38.347Z,86.22
2022-11-16T11:31:09.170Z,86.86
2022-11-16T11:33:38.874Z,85.42
2022-11-16T11:36:10.799Z,85.69
2022-11-16T11:38:56.113Z,86.57
2022-11-16T11:41:23.027Z,85.10
2022-11-16T11:44:01.243Z,87.20
2022-11-16T11:46:56.041Z,86.46
2022-11-16T11:49:23.602Z,85.79
2022-11-16T11:51:52.022Z,84.84
2022-11-16T11:54:23.837Z,85.51
2022-11-16T11:56:50.520Z,85.90
2022-11-16T11:59:20.701Z,85.21
2022-11-16T12:02:07.188Z,87.05
2022-11-16T12:04:56.612Z,87.66
2022-11-16T12:07:36.906Z,88.45
2022-11-16T12:10:15.577Z,88.32
2022-11-16T12:12:53.842Z,88.62
2022-11-16T12:15:33.189Z,87.83
2022-11-16T12:18:14.494Z,88.52
2022-11-16T12:20:49.928Z,88.70
2022-11-16T12:23:47.574Z,88.07
2022-11-16T12:26:26.018Z,87.43
2022-11-16T12:29:04.281Z,88.20
2022-11-16T12:31:51.094Z,86.80
2022-11-16T12:34:29.640Z,89.15
2022-11-16T12:37:04.177Z,87.86
2022-11-16T12:39:34.631Z,89.39
2022-11-16T12:42:31.322Z,88.55
2022-11-16T12:45:13.481Z,89.06
2022-11-16T12:47:54.780Z,88.40
2022-11-16T12:50:38.380Z,87.97
2022-11-16T12:53:18.245Z,89.98
2022-11-16T12:55:51.974Z,87.20
2022-11-16T12:58:26.594Z,88.80
2022-11-16T13:01:02.816Z,88.06
2022-11-16T13:03:36.120Z,87.92
2022-11-16T13:06:06.470Z,88.23
2022-11-16T13:08:46.833Z,89.12
2022-11-16T13:11:18.558Z,89.95
2022-11-16T13:13:53.458Z,91.27
2022-11-16T13:16:21.712Z,90.27
2022-11-16T13:18:48.420Z,89.47
2022-11-16T13:21:31.120Z,90.69
2022-11-16T13:24:12.901Z,89.59
2022-11-16T13:26:46.962Z,90.74
2022-11-16T13:29:24.417Z,90.28
2022-11-16T13:31:58.436Z,90.66
2022-11-16T13:34:27.044Z,90.51
2022-11-16T13:36:53.440Z,89.89
2022-11-16T13:39:22.938Z,89.77
2022-11-16T13:41:51.313Z,90.21
2022-11-16T13:44:29.606Z,89.54
2022-11-16T13:46:59.547Z,90.94
2022-11-16T13:49:30.869Z,91.13
2022-11-16T13:52:16.836Z,89.90
2022-11-16T13:54:49.341Z,89.00
2022-11-16T13:57:23.939Z,90.06
2022-11-16T14:00:10.500Z,90.59
2022-11-16T14:02:38.853Z,89.08
2022-11-16T14:05:14.713Z,88.22
2022-11-16T14:07:42.780Z,90.52
2022-11-16T14:10:11.236Z,90.63
2022-11-16T14:12:55.572Z,86.16
2022-11-16T14:15:26.386Z,77.05
2022-11-16T14:17:59.283Z,82.43
2022-11-16T14:20:35.292Z,84.64
2022-11-16T14:23:14.008Z,90.23
2022-11-16T14:25:44.763Z,92.18
2022-11-16T14:28:38.131Z,90.69
2022-11-16T14:31:15.226Z,91.24
2022-11-16T14:33:42.016Z,89.52
2022-11-16T14:36:10.174Z,90.91
2022-11-16T14:38:38.505Z,92.15
2022-11-16T14:41:07.114Z,91.58
2022-11-16T14:43:39.890Z,91.16
2022-11-16T14:46:13.815Z,91.70
2022-11-16T14:48:43.971Z,91.05
2022-11-16T14:51:13.896Z,91.17
2022-11-16T14:53:45.390Z,91.94
2022-11-16T14:56:13.555Z,91.41
2022-11-16T14:58:40.175Z,91.07
2022-11-16T15:01:14.305Z,89.99
2022-11-16T15:03:50.112Z,89.74
2022-11-16T15:06:16.609Z,89.02
2022-11-16T15:08:46.993Z,90.21
2022-11-16T15:11:23.054Z,90.03
2022-11-16T15:13:50.176Z,89.00
2022-11-16T15:16:19.801Z,88.61
2022-11-16T15:18:56.765Z,89.08
2022-11-16T15:21:24.001Z,89.03
2022-11-16T15:24:15.535Z,88.70
2022-11-16T15:26:38.303Z,89.52
2022-11-16T15:29:04.763Z,88.45
2022-11-16T15:31:34.261Z,89.19
2022-11-16T15:34:01.523Z,88.42
2022-11-16T15:36:33.023Z,89.27
2022-11-16T15:39:02.253Z,89.18
2022-11-16T15:41:29.005Z,87.32
2022-11-16T15:44:15.055Z,88.34
2022-11-16T15:46:46.875Z,89.18
2022-11-16T15:49:24.825Z,89.30
2022-11-16T15:51:51.295Z,90.83
2022-11-16T15:54:24.100Z,88.16
2022-11-16T15:56:53.553Z,88.30
2022-11-16T15:59:24.864Z,87.95
2022-11-16T16:01:52.812Z,86.00
2022-11-16T16:04:19.461Z,83.60
2022-11-16T16:06:48.316Z,85.17
2022-11-16T16:09:24.070Z,85.48
2022-11-16T16:11:51.093Z,85.42
2022-11-16T16:14:28.655Z,84.94
2022-11-16T16:16:57.486Z,85.33
2022-11-16T16:19:43.046Z,85.05
2022-11-16T16:22:14.220Z,87.41
2022-11-16T16:24:42.873Z,88.33
2022-11-16T16:27:17.439Z,87.56
2022-11-16T16:29:44.539Z,88.97
2022-11-16T16:32:17.898Z,90.21
2022-11-16T16:34:44.276Z,90.91
2022-11-16T16:37:11.384Z,91.14
2022-11-16T16:39:38.118Z,90.65
2022-11-16T16:42:05.985Z,91.40
2022-11-16T16:44:32.397Z,90.44
2022-11-16T16:46:59.167Z,92.00
2022-11-16T16:49:26.881Z,92.16
2022-11-16T16:51:53.273Z,91.75
2022-11-16T16:54:19.693Z,91.64
2022-11-16T16:56:46.096Z,92.68
2022-11-16T16:59:13.443Z,92.87
2022-11-16T17:01:40.575Z,91.71
2022-11-16T17:04:07.239Z,91.71
2022-11-16T17:06:34.990Z,91.53
2022-11-16T17:09:01.481Z,91.32
2022-11-16T17:11:27.917Z,91.12
2022-11-16T17:13:54.915Z,91.42
2022-11-16T17:16:21.406Z,90.79
2022-11-16T17:18:47.845Z,90.86
2022-11-16T17:21:14.582Z,89.71
2022-11-16T17:23:42.338Z,89.42
2022-11-16T17:26:09.202Z,88.89
2022-11-16T17:28:35.629Z,90.16
2022-11-16T17:31:02.615Z,89.33
2022-11-16T17:33:33.327Z,89.63
2022-11-16T17:36:00.022Z,88.81
2022-11-16T17:38:26.444Z,88.90
2022-11-16T17:41:02.772Z,91.78
2022-11-16T17:43:29.448Z,92.21
2022-11-16T17:46:02.251Z,92.42
2022-11-16T17:48:28.634Z,93.57
2022-11-16T17:50:55.254Z,92.88
2022-11-16T17:53:21.650Z,92.99
2022-11-16T17:55:48.064Z,92.69
2022-11-16T17:58:15.823Z,93.46
2022-11-16T18:00:42.231Z,93.05
2022-11-16T18:03:08.627Z,92.74
2022-11-16T18:05:35.064Z,93.58
2022-11-16T18:08:01.471Z,92.67
2022-11-16T18:10:27.888Z,92.20
2022-11-16T18:12:54.304Z,91.05
2022-11-16T18:15:28.455Z,89.09
2022-11-16T18:17:55.805Z,89.76
2022-11-16T18:20:22.217Z,89.93
2022-11-16T18:22:48.661Z,91.16
2022-11-16T18:25:15.676Z,91.63
2022-11-16T18:27:42.072Z,90.65
2022-11-16T18:30:10.026Z,90.90
2022-11-16T18:32:37.801Z,91.68
2022-11-16T18:35:04.926Z,92.21
2022-11-16T18:37:31.327Z,91.59
2022-11-16T18:39:57.738Z,91.97
2022-11-16T18:42:24.131Z,91.22
2022-11-16T18:44:50.682Z,90.54
2022-11-16T18:47:17.291Z,90.81
2022-11-16T18:49:45.014Z,90.59
2022-11-16T18:52:11.394Z,92.77
2022-11-16T18:54:37.967Z,92.84
2022-11-16T18:57:04.568Z,92.61
2022-11-16T18:59:31.199Z,92.86
2022-11-16T19:01:57.728Z,93.10
2022-11-16T19:04:24.264Z,91.61
2022-11-16T19:06:52.114Z,91.97
2022-11-16T19:09:18.565Z,91.54
2022-11-16T19:11:44.941Z,91.64
2022-11-16T19:14:11.450Z,91.76
2022-11-16T19:16:41.859Z,90.32
2022-11-16T19:19:11.583Z,90.43
2022-11-16T19:21:37.962Z,91.69
2022-11-16T19:24:07.086Z,91.79
2022-11-16T19:26:33.492Z,91.60
2022-11-16T19:29:00.032Z,92.18
2022-11-16T19:31:28.561Z,91.73
2022-11-16T19:33:56.070Z,91.21
2022-11-16T19:36:23.118Z,91.48
2022-11-16T19:38:50.246Z,90.61
2022-11-16T19:41:19.035Z,90.45
2022-11-16T19:43:45.447Z,90.52
2022-11-16T19:46:13.848Z,90.20
2022-11-16T19:48:40.239Z,91.16
2022-11-16T19:51:07.896Z,90.20
2022-11-16T19:53:35.194Z,89.64
2022-11-16T19:56:01.962Z,91.31
2022-11-16T19:58:29.990Z,89.44
2022-11-16T20:01:00.747Z,90.38
2022-11-16T20:03:27.329Z,89.56
2022-11-16T20:05:53.815Z,89.84
2022-11-16T20:08:20.255Z,88.61
2022-11-16T20:10:46.647Z,87.99
2022-11-16T20:13:13.023Z,88.86
2022-11-16T20:15:40.971Z,88.88
2022-11-16T20:18:07.371Z,89.42
2022-11-16T20:20:33.809Z,88.48
2022-11-16T20:23:00.367Z,90.41
2022-11-16T20:25:26.787Z,89.47
2022-11-16T20:27:53.194Z,87.70
2022-11-16T20:30:20.587Z,90.04
2022-11-16T20:32:48.340Z,90.70
2022-11-16T20:35:18.952Z,90.65
2022-11-16T20:37:45.647Z,89.26
2022-11-16T20:40:12.453Z,91.18
2022-11-16T20:42:38.868Z,90.51
2022-11-16T20:45:07.032Z,90.73
2022-11-16T20:47:33.491Z,89.61
2022-11-16T20:50:01.245Z,90.00
2022-11-16T20:52:27.655Z,90.26
2022-11-16T20:54:54.047Z,91.18
2022-11-16T20:57:20.432Z,91.41
2022-11-16T20:59:47.368Z,90.19
2022-11-16T21:02:13.780Z,90.35
2022-11-16T21:04:40.322Z,90.38
2022-11-16T21:07:08.114Z,90.55
2022-11-16T21:09:34.614Z,90.58
2022-11-16T21:12:01.008Z,90.97
2022-11-16T21:14:27.660Z,89.87
2022-11-16T21:16:54.063Z,89.05
2022-11-16T21:19:20.701Z,88.65
2022-11-16T21:21:47.126Z,88.21
2022-11-16T21:24:14.857Z,89.73
2022-11-16T21:26:41.294Z,89.39
2022-11-16T21:29:07.981Z,90.08
2022-11-16T21:31:36.422Z,89.68
2022-11-16T21:34:03.325Z,88.39
2022-11-16T21:36:31.604Z,88.84
2022-11-16T21:38:58.421Z,88.40
2022-11-16T21:41:26.907Z,88.33
2022-11-16T21:43:53.496Z,89.12
2022-11-16T21:46:21.459Z,89.57
2022-11-16T21:48:48.417Z,88.38
2022-11-16T21:51:16.384Z,87.45
2022-11-16T21:53:43.104Z,87.16
2022-11-16T21:56:12.639Z,89.21
2022-11-16T21:58:41.190Z,89.19
2022-11-16T22:01:09.065Z,88.68
2022-11-16T22:03:36.159Z,87.78
2022-11-16T22:06:11.335Z,88.13
2022-11-16T22:08:38.450Z,88.23
2022-11-16T22:11:05.426Z,87.32
2022-11-16T22:13:31.958Z,88.05
2022-11-16T22:16:04.059Z,87.82
2022-11-16T22:18:30.970Z,87.47
2022-11-16T22:20:57.479Z,87.50
2022-11-16T22:23:23.915Z,86.35
2022-11-16T22:25:51.037Z,87.77
2022-11-16T22:28:21.511Z,87.41
2022-11-16T22:30:51.742Z,87.96
2022-11-16T22:33:20.036Z,86.77
2022-11-16T22:35:46.884Z,87.46
2022-11-16T22:38:13.292Z,88.21
2022-11-16T22:40:39.704Z,87.56
2022-11-16T22:43:06.090Z,86.32
2022-11-16T22:45:32.504Z,87.31
2022-11-16T22:47:58.911Z,88.42
2022-11-16T22:50:26.625Z,88.10
2022-11-16T22:52:53.018Z,88.76
2022-11-16T22:55:19.438Z,88.72
2022-11-16T22:57:45.854Z,87.88
2022-11-16T23:00:13.455Z,88.23
2022-11-16T23:02:40.024Z,88.42
2022-11-16T23:05:07.079Z,87.90
2022-11-16T23:07:34.908Z,88.62
2022-11-16T23:10:01.666Z,88.08
2022-11-16T23:12:28.051Z,87.99
2022-11-16T23:14:54.458Z,88.65
2022-11-16T23:17:20.866Z,88.78
2022-11-16T23:19:47.312Z,88.99
2022-11-16T23:22:15.360Z,88.41
2022-11-16T23:24:43.875Z,88.98
2022-11-16T23:27:10.346Z,88.15
2022-11-16T23:29:36.809Z,87.77
2022-11-16T23:32:03.453Z,88.34
2022-11-16T23:34:29.880Z,86.93
2022-11-16T23:37:01.816Z,87.62
2022-11-16T23:39:28.245Z,86.88
2022-11-16T23:41:56.055Z,87.01
2022-11-16T23:44:22.473Z,86.53
2022-11-16T23:46:48.892Z,88.03
2022-11-16T23:49:15.419Z,86.97
2022-11-16T23:51:41.817Z,87.75
2022-11-16T23:54:08.232Z,87.44
2022-11-16T23:56:34.641Z,87.45
2022-11-16T23:59:02.382Z,87.82
